createdAt,value
2023-03-01T00:01:48.279Z,62.80
2023-03-01T00:04:16.184Z,63.20
2023-03-01T00:06:47.030Z,62.50
2023-03-01T00:09:15.143Z,63.40
2023-03-01T00:11:43.635Z,62.60
2023-03-01T00:14:11.640Z,63.00
2023-03-01T00:16:42.998Z,63.20
2023-03-01T00:19:14.071Z,63.20
2023-03-01T00:21:42.457Z,62.80
2023-03-01T00:24:11.339Z,63.70
2023-03-01T00:26:39.698Z,63.80
2023-03-01T00:29:07.639Z,63.70
2023-03-01T00:31:36.212Z,63.40
2023-03-01T00:34:07.421Z,63.20
2023-03-01T00:36:37.716Z,63.40
2023-03-01T00:39:07.084Z,64.10
2023-03-01T00:41:35.602Z,62.10
2023-03-01T00:44:03.886Z,62.30
2023-03-01T00:46:32.433Z,62.60
2023-03-01T00:49:02.984Z,62.70
2023-03-01T00:51:32.650Z,62.50
2023-03-01T00:54:02.876Z,62.30
2023-03-01T00:56:32.018Z,62.60
2023-03-01T00:59:00.159Z,61.90
2023-03-01T01:01:31.488Z,61.40
2023-03-01T01:04:02.006Z,61.80
2023-03-01T01:06:33.875Z,61.80
2023-03-01T01:09:02.177Z,60.80
2023-03-01T01:11:31.811Z,61.10
2023-03-01T01:14:00.795Z,61.50
2023-03-01T01:16:30.352Z,62.10
2023-03-01T01:18:59.628Z,62.80
2023-03-01T01:21:28.186Z,61.90
2023-03-01T01:23:57.690Z,62.80
2023-03-01T01:26:27.880Z,61.60
2023-03-01T01:28:56.839Z,61.50
2023-03-01T01:31:25.524Z,61.90
2023-03-01T01:33:54.373Z,62.40
2023-03-01T01:36:22.394Z,62.00
2023-03-01T01:38:50.679Z,61.70
2023-03-01T01:41:20.190Z,61.70
2023-03-01T01:43:50.476Z,61.80
2023-03-01T01:46:25.803Z,61.10
2023-03-01T01:48:58.897Z,61.50
2023-03-01T01:51:30.356Z,61.70
2023-03-01T01:54:03.008Z,61.40
2023-03-01T01:56:32.743Z,61.70
2023-03-01T01:59:00.927Z,61.10
2023-03-01T02:01:29.007Z,61.60
2023-03-01T02:03:57.112Z,61.50
2023-03-01T02:06:31.166Z,61.50
2023-03-01T02:09:03.049Z,62.10
2023-03-01T02:11:34.471Z,61.40
2023-03-01T02:14:02.631Z,61.00
2023-03-01T02:16:32.174Z,60.90
2023-03-01T02:19:00.921Z,61.30
2023-03-01T02:21:40.416Z,61.70
2023-03-01T02:24:21.044Z,60.90
2023-03-01T02:26:54.147Z,61.20
2023-03-01T02:29:23.704Z,61.10
2023-03-01T02:31:52.307Z,61.20
2023-03-01T02:34:23.205Z,60.60
2023-03-01T02:36:54.563Z,60.10
2023-03-01T02:39:28.475Z,60.90
2023-03-01T02:41:58.322Z,60.80
2023-03-01T02:44:27.734Z,60.90
2023-03-01T02:46:58.636Z,60.80
2023-03-01T02:49:29.967Z,60.00
2023-03-01T02:52:22.446Z,59.20
2023-03-01T02:54:54.861Z,59.30
2023-03-01T02:57:23.911Z,59.00
2023-03-01T02:59:54.675Z,58.70
2023-03-01T03:02:36.940Z,59.00
2023-03-01T03:05:09.309Z,58.70
2023-03-01T03:07:38.628Z,59.70
2023-03-01T03:10:09.596Z,59.30
2023-03-01T03:12:37.473Z,58.40
2023-03-01T03:15:09.855Z,59.00
2023-03-01T03:17:38.086Z,58.50
2023-03-01T03:20:11.837Z,58.80
2023-03-01T03:22:40.801Z,58.40
2023-03-01T03:25:11.431Z,58.20
2023-03-01T03:27:39.609Z,59.00
2023-03-01T03:30:12.923Z,58.00
2023-03-01T03:32:40.922Z,58.70
2023-03-01T03:35:10.959Z,58.90
2023-03-01T03:37:57.181Z,59.40
2023-03-01T03:40:25.644Z,59.90
2023-03-01T03:42:53.542Z,59.50
2023-03-01T03:45:23.112Z,59.00
2023-03-01T03:47:51.054Z,59.60
2023-03-01T03:50:20.663Z,58.20
2023-03-01T03:52:48.678Z,58.80
2023-03-01T03:55:20.333Z,59.00
2023-03-01T03:57:52.364Z,58.00
2023-03-01T04:00:24.804Z,58.60
2023-03-01T04:02:57.516Z,58.50
2023-03-01T04:05:25.853Z,57.70
2023-03-01T04:08:02.050Z,57.60
2023-03-01T04:10:32.358Z,59.00
2023-03-01T04:13:00.456Z,57.60
2023-03-01T04:15:30.098Z,59.20
2023-03-01T04:18:00.015Z,58.60
2023-03-01T04:20:30.525Z,58.90
2023-03-01T04:23:11.469Z,59.20
2023-03-01T04:25:40.934Z,58.70
2023-03-01T04:28:09.142Z,59.20
2023-03-01T04:30:39.767Z,59.80
2023-03-01T04:33:08.943Z,59.10
2023-03-01T04:35:38.626Z,58.90
2023-03-01T04:38:07.356Z,58.20
2023-03-01T04:40:35.974Z,58.20
2023-03-01T04:43:04.145Z,58.90
2023-03-01T04:45:33.502Z,58.50
2023-03-01T04:48:02.931Z,58.60
2023-03-01T04:50:30.973Z,59.40
2023-03-01T04:53:00.171Z,59.10
2023-03-01T04:55:28.515Z,58.80
2023-03-01T04:57:56.708Z,59.20
2023-03-01T05:00:25.264Z,59.50
2023-03-01T05:02:55.904Z,59.10
2023-03-01T05:05:28.247Z,58.90
2023-03-01T05:07:57.865Z,59.00
2023-03-01T05:10:26.617Z,59.30
2023-03-01T05:12:54.638Z,59.30
2023-03-01T05:15:26.483Z,58.80
2023-03-01T05:17:55.179Z,60.00
2023-03-01T05:20:24.921Z,59.30
2023-03-01T05:22:53.904Z,60.20
2023-03-01T05:25:22.409Z,60.10
2023-03-01T05:27:50.465Z,59.40
2023-03-01T05:30:19.027Z,60.20
2023-03-01T05:32:49.106Z,59.40
2023-03-01T05:35:19.153Z,60.20
2023-03-01T05:37:50.315Z,60.50
2023-03-01T05:40:20.164Z,59.90
2023-03-01T05:42:49.882Z,59.60
2023-03-01T05:45:19.211Z,60.50
2023-03-01T05:47:49.278Z,61.30
2023-03-01T05:50:20.540Z,60.50
2023-03-01T05:52:51.932Z,60.50
2023-03-01T05:55:21.584Z,60.20
2023-03-01T05:57:50.738Z,60.40
2023-03-01T06:00:20.860Z,59.70
2023-03-01T06:02:48.720Z,60.60
2023-03-01T06:05:16.985Z,59.30
2023-03-01T06:07:45.001Z,60.50
2023-03-01T06:10:15.606Z,60.50
2023-03-01T06:12:44.709Z,60.50
2023-03-01T06:15:13.990Z,60.00
2023-03-01T06:17:44.328Z,60.50
2023-03-01T06:20:15.499Z,60.50
2023-03-01T06:22:43.730Z,60.50
2023-03-01T06:25:13.454Z,60.50
2023-03-01T06:27:43.045Z,60.50
2023-03-01T06:30:13.046Z,60.50
2023-03-01T06:32:42.910Z,60.30
2023-03-01T06:35:11.927Z,60.80
2023-03-01T06:37:40.023Z,58.30
2023-03-01T06:40:12.510Z,57.70
2023-03-01T06:42:43.526Z,56.40
2023-03-01T06:45:12.412Z,53.50
2023-03-01T06:47:40.511Z,52.40
2023-03-01T06:50:09.095Z,51.50
2023-03-01T06:52:37.057Z,51.00
2023-03-01T06:55:05.632Z,50.40
2023-03-01T06:57:33.602Z,49.60
2023-03-01T07:00:02.837Z,47.30
2023-03-01T07:02:30.755Z,47.20
2023-03-01T07:05:03.814Z,46.20
2023-03-01T07:07:31.833Z,46.10
2023-03-01T07:09:59.625Z,45.80
2023-03-01T07:12:27.546Z,43.60
2023-03-01T07:14:55.495Z,43.00
2023-03-01T07:17:24.666Z,43.20
2023-03-01T07:19:52.571Z,42.60
2023-03-01T07:22:20.400Z,42.60
2023-03-01T07:24:48.230Z,42.70
2023-03-01T07:27:16.159Z,41.90
2023-03-01T07:29:44.061Z,41.10
2023-03-01T07:32:12.750Z,39.70
2023-03-01T07:34:41.962Z,39.60
2023-03-01T07:37:10.307Z,40.00
2023-03-01T07:39:38.161Z,40.40
2023-03-01T07:42:05.989Z,39.10
2023-03-01T07:44:33.849Z,37.70
2023-03-01T07:47:01.672Z,37.60
2023-03-01T07:49:29.502Z,37.50
2023-03-01T07:51:58.674Z,36.60
2023-03-01T07:54:27.255Z,37.10
2023-03-01T07:56:55.748Z,35.90
2023-03-01T07:59:24.673Z,36.50
2023-03-01T08:01:52.561Z,36.10
2023-03-01T08:04:20.465Z,37.40
2023-03-01T08:06:48.303Z,36.10
2023-03-01T08:09:17.493Z,36.00
2023-03-01T08:11:45.460Z,35.20
2023-03-01T08:14:13.321Z,34.50
2023-03-01T08:16:41.447Z,34.50
2023-03-01T08:19:10.831Z,34.70
2023-03-01T08:21:39.293Z,34.20
2023-03-01T08:24:08.575Z,34.70
2023-03-01T08:26:38.154Z,34.60
2023-03-01T08:29:06.131Z,35.00
2023-03-01T08:31:37.602Z,34.10
2023-03-01T08:34:09.397Z,33.10
2023-03-01T08:36:39.326Z,33.80
2023-03-01T08:39:07.761Z,34.80
2023-03-01T08:41:37.029Z,32.90
2023-03-01T08:44:05.295Z,32.80
2023-03-01T08:46:35.621Z,32.10
2023-03-01T08:49:06.345Z,33.00
2023-03-01T08:51:37.627Z,31.20
2023-03-01T08:54:06.095Z,32.60
2023-03-01T08:56:34.300Z,33.30
2023-03-01T08:59:03.485Z,31.50
2023-03-01T09:01:31.325Z,31.00
2023-03-01T09:03:59.230Z,31.10
2023-03-01T09:06:27.411Z,30.40
2023-03-01T09:08:55.757Z,33.20
2023-03-01T09:11:24.282Z,31.40
2023-03-01T09:13:52.576Z,33.50
2023-03-01T09:16:23.835Z,31.30
2023-03-01T09:18:52.277Z,30.80
2023-03-01T09:21:37.297Z,30.60
2023-03-01T09:24:08.229Z,30.80
2023-03-01T09:26:36.082Z,31.10
2023-03-01T09:29:04.068Z,30.20
2023-03-01T09:31:33.270Z,29.40
2023-03-01T09:34:01.091Z,29.60
2023-03-01T09:36:29.836Z,32.60
2023-03-01T09:38:59.550Z,31.40
2023-03-01T09:41:43.733Z,31.70
2023-03-01T09:44:20.720Z,31.00
2023-03-01T09:46:50.203Z,31.30
2023-03-01T09:49:21.348Z,29.20
2023-03-01T09:51:57.782Z,30.80
2023-03-01T09:54:25.657Z,29.90
2023-03-01T09:57:06.252Z,30.90
2023-03-01T10:00:01.698Z,30.20
2023-03-01T10:02:40.193Z,28.70
2023-03-01T10:05:33.132Z,30.00
2023-03-01T10:08:21.213Z,29.70
2023-03-01T10:10:50.280Z,30.10
2023-03-01T10:13:21.808Z,28.80
2023-03-01T10:15:55.981Z,27.20
2023-03-01T10:18:28.683Z,27.40
2023-03-01T10:21:00.232Z,27.60
2023-03-01T10:23:30.187Z,28.00
2023-03-01T10:26:08.536Z,28.10
2023-03-01T10:28:48.100Z,26.90
2023-03-01T10:31:20.243Z,28.30
2023-03-01T10:33:54.378Z,26.20
2023-03-01T10:36:22.374Z,26.30
2023-03-01T10:38:53.327Z,26.50
2023-03-01T10:41:21.365Z,27.80
2023-03-01T10:43:51.084Z,26.60
2023-03-01T10:46:25.963Z,28.10
2023-03-01T10:49:20.633Z,26.40
2023-03-01T10:51:50.936Z,26.80
2023-03-01T10:54:21.707Z,25.50
2023-03-01T10:56:51.749Z,27.10
2023-03-01T10:59:27.761Z,26.80
2023-03-01T11:02:25.308Z,25.20
2023-03-01T11:05:03.903Z,25.20
2023-03-01T11:07:31.854Z,26.50
2023-03-01T11:09:59.758Z,25.70
2023-03-01T11:12:30.645Z,26.00
2023-03-01T11:14:59.256Z,23.50
2023-03-01T11:17:31.594Z,26.30
2023-03-01T11:20:15.508Z,25.90
2023-03-01T11:22:49.517Z,23.60
2023-03-01T11:25:19.086Z,26.70
2023-03-01T11:27:48.244Z,26.80
2023-03-01T11:30:23.236Z,26.60
2023-03-01T11:32:58.459Z,26.40
2023-03-01T11:35:30.231Z,27.30
2023-03-01T11:38:05.952Z,27.20
2023-03-01T11:40:37.496Z,26.10
2023-03-01T11:43:16.603Z,26.80
2023-03-01T11:45:56.537Z,26.10
2023-03-01T11:48:49.525Z,27.10
2023-03-01T11:51:25.829Z,27.90
2023-03-01T11:54:04.270Z,26.30
2023-03-01T11:56:37.500Z,26.00
2023-03-01T11:59:26.804Z,25.10
2023-03-01T12:02:20.438Z,25.20
2023-03-01T12:05:15.776Z,25.50
2023-03-01T12:07:53.791Z,24.40
2023-03-01T12:10:28.842Z,24.20
2023-03-01T12:13:21.065Z,24.90
2023-03-01T12:16:02.411Z,24.20
2023-03-01T12:18:54.471Z,23.80
2023-03-01T12:21:32.833Z,23.10
2023-03-01T12:24:39.822Z,26.10
2023-03-01T12:27:25.874Z,24.40
2023-03-01T12:30:01.280Z,24.00
2023-03-01T12:32:42.213Z,21.70
2023-03-01T12:35:34.296Z,24.70
2023-03-01T12:38:14.573Z,24.50
2023-03-01T12:41:10.159Z,24.70
2023-03-01T12:43:53.830Z,25.30
2023-03-01T12:46:30.381Z,22.80
2023-03-01T12:49:06.487Z,24.60
2023-03-01T12:51:36.709Z,26.00
2023-03-01T12:54:13.058Z,25.20
2023-03-01T12:56:42.727Z,25.20
2023-03-01T12:59:17.436Z,24.40
2023-03-01T13:01:53.806Z,23.60
2023-03-01T13:04:42.352Z,24.30
2023-03-01T13:07:21.478Z,23.20
2023-03-01T13:10:02.253Z,26.40
2023-03-01T13:13:02.200Z,27.00
2023-03-01T13:15:37.746Z,24.70
2023-03-01T13:18:27.278Z,24.80
2023-03-01T13:20:59.914Z,24.10
2023-03-01T13:23:31.740Z,25.90
2023-03-01T13:26:12.832Z,25.10
2023-03-01T13:28:48.496Z,24.50
2023-03-01T13:32:02.605Z,27.20
2023-03-01T13:34:50.395Z,25.60
2023-03-01T13:37:30.276Z,24.80
2023-03-01T13:39:59.923Z,25.90
2023-03-01T13:42:38.297Z,25.00
2023-03-01T13:45:25.831Z,26.30
2023-03-01T13:48:00.270Z,26.80
2023-03-01T13:50:30.512Z,24.50
2023-03-01T13:53:01.822Z,24.50
2023-03-01T13:55:38.656Z,25.00
2023-03-01T13:58:18.510Z,26.80
2023-03-01T14:00:47.707Z,25.80
2023-03-01T14:03:18.201Z,25.80
2023-03-01T14:06:12.650Z,25.80
2023-03-01T14:08:42.436Z,24.70
2023-03-01T14:11:46.796Z,24.30
2023-03-01T14:14:33.270Z,25.50
2023-03-01T14:17:26.815Z,24.40
2023-03-01T14:19:58.825Z,26.40
2023-03-01T14:22:29.433Z,25.60
2023-03-01T14:24:59.826Z,25.80
2023-03-01T14:27:31.992Z,27.10
2023-03-01T14:30:02.796Z,26.10
2023-03-01T14:32:33.628Z,25.40
2023-03-01T14:35:02.617Z,24.90
2023-03-01T14:37:33.723Z,25.30
2023-03-01T14:40:03.594Z,27.10
2023-03-01T14:42:36.102Z,27.00
2023-03-01T14:45:05.805Z,27.60
2023-03-01T14:47:39.194Z,25.60
2023-03-01T14:50:10.527Z,27.60
2023-03-01T14:52:40.591Z,28.60
2023-03-01T14:55:17.897Z,28.10
2023-03-01T14:57:46.859Z,28.40
2023-03-01T15:00:21.892Z,28.40
2023-03-01T15:02:53.566Z,27.20
2023-03-01T15:05:27.472Z,27.20
2023-03-01T15:07:56.057Z,28.80
2023-03-01T15:10:26.219Z,28.60
2023-03-01T15:12:54.189Z,29.00
2023-03-01T15:15:37.426Z,28.90
2023-03-01T15:18:16.096Z,28.90
2023-03-01T15:20:44.039Z,29.20
2023-03-01T15:23:24.831Z,30.50
2023-03-01T15:25:57.592Z,31.00
2023-03-01T15:28:28.474Z,29.60
2023-03-01T15:30:59.808Z,30.90
2023-03-01T15:33:37.983Z,29.20
2023-03-01T15:36:34.851Z,30.60
2023-03-01T15:39:03.844Z,31.00
2023-03-01T15:41:33.339Z,30.60
2023-03-01T15:44:02.616Z,32.40
2023-03-01T15:46:35.280Z,31.90
2023-03-01T15:49:06.274Z,31.50
2023-03-01T15:51:38.337Z,30.30
2023-03-01T15:54:09.032Z,32.60
2023-03-01T15:56:36.892Z,33.20
2023-03-01T15:59:05.717Z,33.10
2023-03-01T16:01:35.241Z,33.00
2023-03-01T16:04:03.340Z,33.40
2023-03-01T16:06:32.455Z,34.40
2023-03-01T16:09:01.833Z,34.60
2023-03-01T16:11:29.790Z,34.20
2023-03-01T16:13:57.671Z,34.60
2023-03-01T16:16:25.568Z,34.60
2023-03-01T16:18:55.469Z,35.50
2023-03-01T16:21:25.249Z,37.30
2023-03-01T16:23:54.068Z,35.60
2023-03-01T16:26:23.301Z,35.50
2023-03-01T16:28:51.127Z,36.10
2023-03-01T16:31:22.759Z,37.10
2023-03-01T16:33:52.430Z,37.70
2023-03-01T16:36:21.893Z,37.20
2023-03-01T16:38:50.239Z,36.90
2023-03-01T16:41:20.144Z,37.90
2023-03-01T16:43:49.337Z,38.00
2023-03-01T16:46:19.088Z,39.40
2023-03-01T16:48:48.067Z,39.90
2023-03-01T16:51:16.518Z,38.50
2023-03-01T16:53:47.104Z,39.20
2023-03-01T16:56:16.183Z,39.80
2023-03-01T16:58:44.447Z,39.70
2023-03-01T17:01:16.693Z,40.00
2023-03-01T17:03:45.131Z,40.00
2023-03-01T17:06:16.216Z,39.80
2023-03-01T17:08:44.145Z,38.10
2023-03-01T17:11:14.034Z,39.30
2023-03-01T17:13:42.378Z,40.00
2023-03-01T17:16:12.281Z,40.30
2023-03-01T17:18:41.494Z,41.00
2023-03-01T17:21:10.246Z,40.30
2023-03-01T17:23:39.543Z,41.20
2023-03-01T17:26:08.108Z,40.00
2023-03-01T17:28:38.012Z,40.30
2023-03-01T17:31:08.206Z,40.60
2023-03-01T17:33:36.449Z,40.90
2023-03-01T17:36:06.405Z,40.90
2023-03-01T17:38:34.345Z,41.00
2023-03-01T17:41:02.575Z,41.00
2023-03-01T17:43:30.750Z,40.90
2023-03-01T17:45:58.890Z,39.90
2023-03-01T17:48:26.804Z,40.80
2023-03-01T17:50:55.901Z,41.50
2023-03-01T17:53:25.082Z,41.40
2023-03-01T17:56:01.581Z,41.60
2023-03-01T17:58:30.315Z,41.70
2023-03-01T18:01:10.537Z,42.00
2023-03-01T18:03:38.349Z,41.90
2023-03-01T18:06:12.930Z,40.70
2023-03-01T18:08:42.487Z,41.20
2023-03-01T18:11:10.351Z,41.60
2023-03-01T18:13:39.853Z,41.20
2023-03-01T18:16:08.574Z,40.80
2023-03-01T18:18:36.775Z,41.60
2023-03-01T18:21:05.360Z,41.50
2023-03-01T18:23:35.281Z,40.50
2023-03-01T18:26:07.684Z,40.90
2023-03-01T18:28:36.053Z,41.40
2023-03-01T18:31:08.501Z,41.00
2023-03-01T18:33:36.700Z,41.30
2023-03-01T18:36:04.808Z,41.30
2023-03-01T18:38:33.189Z,41.70
2023-03-01T18:41:00.993Z,42.00
2023-03-01T18:43:32.761Z,42.00
2023-03-01T18:46:01.488Z,42.50
2023-03-01T18:48:30.027Z,43.30
2023-03-01T18:50:58.050Z,43.40
2023-03-01T18:53:25.946Z,43.30
2023-03-01T18:55:53.807Z,43.40
2023-03-01T18:58:21.627Z,43.30
2023-03-01T19:00:50.806Z,43.80
2023-03-01T19:03:18.622Z,44.20
2023-03-01T19:05:46.590Z,43.10
2023-03-01T19:08:14.421Z,43.90
2023-03-01T19:10:42.265Z,43.90
2023-03-01T19:13:10.301Z,44.90
2023-03-01T19:15:38.226Z,44.60
2023-03-01T19:18:07.502Z,44.80
2023-03-01T19:20:35.414Z,45.30
2023-03-01T19:23:03.272Z,45.20
2023-03-01T19:25:31.120Z,45.30
2023-03-01T19:27:59.240Z,45.20
2023-03-01T19:30:27.250Z,45.70
2023-03-01T19:32:55.320Z,46.10
2023-03-01T19:35:24.560Z,45.90
2023-03-01T19:37:52.386Z,44.50
2023-03-01T19:40:20.326Z,45.10
2023-03-01T19:42:48.156Z,45.70
2023-03-01T19:45:18.050Z,45.10
2023-03-01T19:47:48.966Z,45.60
2023-03-01T19:50:17.947Z,45.60
2023-03-01T19:52:47.111Z,45.20
2023-03-01T19:55:14.979Z,44.30
2023-03-01T19:57:42.805Z,45.40
2023-03-01T20:00:11.915Z,45.10
2023-03-01T20:02:39.888Z,45.00
2023-03-01T20:05:08.154Z,45.00
2023-03-01T20:07:36.067Z,44.10
2023-03-01T20:10:05.784Z,44.80
2023-03-01T20:12:33.608Z,45.00
2023-03-01T20:15:01.409Z,44.50
2023-03-01T20:17:29.256Z,45.00
2023-03-01T20:19:57.079Z,45.00
2023-03-01T20:22:25.037Z,45.30
2023-03-01T20:24:52.952Z,45.00
2023-03-01T20:27:22.326Z,45.10
2023-03-01T20:29:50.180Z,45.00
2023-03-01T20:32:18.109Z,44.90
2023-03-01T20:34:46.071Z,44.90
2023-03-01T20:37:13.908Z,45.10
2023-03-01T20:39:41.754Z,44.90
2023-03-01T20:42:09.585Z,45.80
2023-03-01T20:44:43.009Z,45.60
2023-03-01T20:47:11.105Z,45.40
2023-03-01T20:49:38.973Z,45.70
2023-03-01T20:52:07.550Z,46.60
2023-03-01T20:54:35.414Z,48.00
2023-03-01T20:57:03.246Z,46.80
2023-03-01T20:59:31.115Z,47.40
2023-03-01T21:02:00.341Z,47.40
2023-03-01T21:04:28.198Z,47.70
2023-03-01T21:06:56.015Z,48.10
2023-03-01T21:09:23.844Z,48.50
2023-03-01T21:11:51.851Z,48.50
2023-03-01T21:14:21.465Z,48.80
2023-03-01T21:16:49.564Z,48.50
2023-03-01T21:19:18.839Z,48.10
2023-03-01T21:21:46.734Z,48.40
2023-03-01T21:24:14.556Z,47.60
2023-03-01T21:26:42.383Z,47.30
2023-03-01T21:29:10.229Z,47.80
2023-03-01T21:31:38.228Z,48.20
2023-03-01T21:34:07.303Z,48.20
2023-03-01T21:36:37.120Z,49.00
2023-03-01T21:39:06.582Z,48.90
2023-03-01T21:41:36.405Z,48.90
2023-03-01T21:44:06.694Z,48.90
2023-03-01T21:46:37.439Z,48.30
2023-03-01T21:49:06.043Z,48.10
2023-03-01T21:51:36.500Z,48.40
2023-03-01T21:54:05.557Z,48.30
2023-03-01T21:56:38.574Z,48.10
2023-03-01T21:59:07.780Z,48.10
2023-03-01T22:01:35.820Z,48.00
2023-03-01T22:04:04.215Z,47.20
2023-03-01T22:06:35.081Z,48.10
2023-03-01T22:09:07.583Z,48.60
2023-03-01T22:11:37.869Z,48.40
2023-03-01T22:14:05.886Z,48.50
2023-03-01T22:16:36.562Z,48.20
2023-03-01T22:19:05.488Z,48.80
2023-03-01T22:21:33.893Z,48.50
2023-03-01T22:24:02.184Z,48.30
2023-03-01T22:26:33.869Z,48.90
2023-03-01T22:29:03.847Z,48.00
2023-03-01T22:31:31.772Z,47.00
2023-03-01T22:34:00.172Z,48.00
2023-03-01T22:36:28.652Z,47.30
2023-03-01T22:39:00.229Z,47.60
2023-03-01T22:41:29.478Z,48.50
2023-03-01T22:43:58.691Z,48.60
2023-03-01T22:46:27.504Z,48.20
2023-03-01T22:48:56.145Z,47.20
2023-03-01T22:51:25.986Z,47.00
2023-03-01T22:53:54.752Z,47.10
2023-03-01T22:56:24.513Z,47.30
2023-03-01T22:58:52.570Z,47.40
2023-03-01T23:01:23.779Z,47.50
2023-03-01T23:03:52.200Z,48.40
2023-03-01T23:06:21.738Z,48.80
2023-03-01T23:08:51.548Z,47.50
2023-03-01T23:11:20.971Z,48.60
2023-03-01T23:13:49.660Z,48.80
2023-03-01T23:16:18.437Z,48.80
2023-03-01T23:18:47.727Z,48.80
2023-03-01T23:21:17.148Z,48.70
2023-03-01T23:23:46.458Z,48.40
2023-03-01T23:26:14.736Z,48.80
2023-03-01T23:28:42.866Z,49.20
2023-03-01T23:31:13.691Z,50.00
2023-03-01T23:33:44.392Z,48.80
2023-03-01T23:36:21.525Z,49.00
2023-03-01T23:38:50.964Z,48.80
2023-03-01T23:41:21.397Z,48.80
2023-03-01T23:43:50.934Z,48.10
2023-03-01T23:46:21.577Z,49.40
2023-03-01T23:48:49.960Z,49.20
2023-03-01T23:51:19.732Z,49.30
2023-03-01T23:53:55.018Z,49.60
2023-03-01T23:56:26.703Z,49.70
2023-03-01T23:58:55.317Z,50.00
